createdAt,value
2023-03-05T00:01:41.677Z,8.63
2023-03-05T00:04:09.276Z,8.73
2023-03-05T00:06:36.362Z,8.23
2023-03-05T00:09:03.573Z,9.15
2023-03-05T00:11:30.784Z,9.60
2023-03-05T00:13:57.882Z,9.00
2023-03-05T00:16:27.718Z,8.77
2023-03-05T00:18:54.800Z,9.85
2023-03-05T00:21:21.901Z,7.55
2023-03-05T00:26:17.676Z,8.27
2023-03-05T00:28:44.825Z,9.43
2023-03-05T00:31:11.931Z,7.15
2023-03-05T00:33:39.063Z,7.60
2023-03-05T00:36:06.245Z,10.00
2023-03-05T00:38:33.382Z,8.77
2023-03-05T00:41:00.450Z,9.23
2023-03-05T00:43:27.510Z,8.93
2023-03-05T00:45:54.584Z,8.32
2023-03-05T00:48:22.533Z,7.40
2023-03-05T00:50:49.615Z,10.90
2023-03-05T00:53:16.714Z,6.90
2023-03-05T00:55:43.768Z,8.18
2023-03-05T00:58:10.845Z,8.20
2023-03-05T01:00:37.901Z,6.68
2023-03-05T01:03:05.052Z,8.13
2023-03-05T01:05:32.241Z,8.25
2023-03-05T01:07:59.323Z,6.47
2023-03-05T01:10:30.184Z,7.68
2023-03-05T01:15:44.350Z,7.45
2023-03-05T01:18:11.437Z,7.68
2023-03-05T01:20:38.528Z,7.30
2023-03-05T01:23:05.598Z,5.75
2023-03-05T01:25:32.683Z,7.00
2023-03-05T01:27:59.792Z,6.20
2023-03-05T01:30:26.872Z,7.68
2023-03-05T01:35:40.939Z,6.10
2023-03-05T01:38:08.040Z,7.28
2023-03-05T01:40:35.135Z,6.28
2023-03-05T01:43:02.215Z,6.90
2023-03-05T01:45:29.386Z,7.38
2023-03-05T01:50:43.416Z,6.13
2023-03-05T01:53:10.560Z,7.53
2023-03-05T01:55:37.644Z,6.57
2023-03-05T01:58:04.725Z,7.30
2023-03-05T02:00:31.847Z,6.15
2023-03-05T02:02:58.924Z,8.15
2023-03-05T02:05:27.192Z,6.68
2023-03-05T02:07:54.332Z,6.90
2023-03-05T02:10:21.409Z,6.93
2023-03-05T02:12:48.474Z,6.28
2023-03-05T02:15:15.530Z,7.38
2023-03-05T02:17:42.635Z,6.28
2023-03-05T02:20:09.733Z,6.50
2023-03-05T02:22:36.840Z,6.18
2023-03-05T02:25:03.923Z,6.65
2023-03-05T02:27:34.973Z,6.90
2023-03-05T02:30:02.082Z,5.78
2023-03-05T02:32:29.188Z,7.00
2023-03-05T02:34:56.309Z,7.30
2023-03-05T02:37:23.379Z,6.90
2023-03-05T02:39:50.452Z,7.18
2023-03-05T02:42:17.534Z,7.63
2023-03-05T02:44:44.613Z,7.40
2023-03-05T02:47:11.689Z,6.82
2023-03-05T02:49:38.743Z,6.22
2023-03-05T02:52:05.805Z,6.43
2023-03-05T02:54:32.876Z,7.70
2023-03-05T02:56:59.977Z,6.13
2023-03-05T02:59:27.093Z,5.55
2023-03-05T03:01:54.168Z,6.13
2023-03-05T03:04:21.233Z,5.55
2023-03-05T03:06:48.299Z,5.20
2023-03-05T03:09:15.414Z,6.35
2023-03-05T03:11:42.637Z,8.68
2023-03-05T03:14:09.691Z,6.10
2023-03-05T03:16:36.846Z,6.20
2023-03-05T03:19:03.976Z,6.40
2023-03-05T03:21:31.362Z,5.22
2023-03-05T03:23:58.433Z,7.28
2023-03-05T03:26:25.530Z,5.35
2023-03-05T03:28:52.610Z,6.15
2023-03-05T03:31:19.710Z,6.05
2023-03-05T03:36:33.821Z,5.85
2023-03-05T03:39:00.884Z,6.35
2023-03-05T03:41:27.976Z,6.70
2023-03-05T03:46:42.072Z,5.30
2023-03-05T03:49:09.142Z,5.43
2023-03-05T03:51:36.193Z,6.72
2023-03-05T03:54:03.339Z,5.38
2023-03-05T03:56:30.432Z,4.55
2023-03-05T03:58:57.587Z,4.97
2023-03-05T04:01:24.824Z,6.00
2023-03-05T04:06:39.024Z,5.65
2023-03-05T04:09:06.091Z,5.80
2023-03-05T04:11:33.156Z,6.72
2023-03-05T04:14:00.224Z,5.50
2023-03-05T04:16:27.713Z,5.13
2023-03-05T04:21:41.861Z,5.43
2023-03-05T04:24:09.116Z,5.82
2023-03-05T04:26:36.274Z,5.38
2023-03-05T04:29:03.344Z,5.25
2023-03-05T04:31:30.544Z,5.35
2023-03-05T04:36:24.682Z,4.97
2023-03-05T04:38:51.769Z,5.38
2023-03-05T04:41:18.828Z,5.72
2023-03-05T04:49:19.853Z,4.75
2023-03-05T04:54:33.982Z,5.07
2023-03-05T04:57:01.128Z,5.75
2023-03-05T04:59:28.216Z,6.55
2023-03-05T05:04:45.081Z,5.18
2023-03-05T05:07:12.250Z,5.38
2023-03-05T05:09:41.217Z,5.03
2023-03-05T05:12:08.310Z,5.00
2023-03-05T05:14:35.382Z,5.00
2023-03-05T05:17:05.128Z,5.45
2023-03-05T05:19:32.255Z,4.00
2023-03-05T05:21:59.385Z,5.10
2023-03-05T05:24:26.489Z,5.18
2023-03-05T05:26:53.587Z,4.82
2023-03-05T05:29:20.655Z,5.63
2023-03-05T05:31:47.769Z,4.80
2023-03-05T05:34:14.848Z,5.30
2023-03-05T05:36:41.915Z,6.07
2023-03-05T05:39:09.022Z,5.38
2023-03-05T05:41:36.094Z,5.35
2023-03-05T05:44:03.181Z,4.68
2023-03-05T05:46:30.657Z,6.18
2023-03-05T05:48:57.764Z,6.10
2023-03-05T05:51:24.956Z,4.80
2023-03-05T05:56:39.011Z,5.90
2023-03-05T05:59:06.069Z,5.80
2023-03-05T06:01:33.866Z,6.38
2023-03-05T06:04:01.635Z,5.63
2023-03-05T06:06:29.086Z,5.18
2023-03-05T06:08:56.614Z,6.05
2023-03-05T06:11:24.001Z,4.88
2023-03-05T06:13:54.937Z,6.30
2023-03-05T06:16:22.540Z,5.78
2023-03-05T06:18:56.183Z,10.18
2023-03-05T06:21:23.544Z,41.70
2023-03-05T06:26:18.401Z,10.38
2023-03-05T06:28:45.717Z,8.77
2023-03-05T06:31:13.162Z,8.68
2023-03-05T06:33:41.788Z,7.15
2023-03-05T06:36:09.260Z,10.70
2023-03-05T06:38:36.852Z,9.55
2023-03-05T06:41:07.643Z,10.60
2023-03-05T06:43:35.769Z,9.80
2023-03-05T06:46:03.200Z,10.73
2023-03-05T06:48:30.585Z,7.10
2023-03-05T06:50:58.096Z,7.40
2023-03-05T06:53:25.636Z,9.10
2023-03-05T06:55:53.081Z,9.60
2023-03-05T06:58:20.624Z,8.82
2023-03-05T07:00:48.421Z,6.55
2023-03-05T07:03:16.052Z,9.98
2023-03-05T07:05:43.543Z,8.60
2023-03-05T07:08:12.227Z,9.65
2023-03-05T07:13:13.821Z,6.60
2023-03-05T07:15:43.920Z,7.72
2023-03-05T07:18:12.947Z,10.38
2023-03-05T07:20:44.434Z,8.82
2023-03-05T07:23:15.651Z,7.95
2023-03-05T07:25:44.389Z,8.20
2023-03-05T07:28:11.819Z,6.88
2023-03-05T07:30:42.274Z,5.78
2023-03-05T07:33:09.685Z,6.53
2023-03-05T07:35:40.153Z,7.70
2023-03-05T07:38:12.907Z,6.88
2023-03-05T07:40:42.823Z,9.02
2023-03-05T07:43:10.201Z,5.63
2023-03-05T07:45:37.732Z,6.28
2023-03-05T07:48:08.191Z,7.25
2023-03-05T07:50:35.772Z,6.82
2023-03-05T07:53:05.885Z,7.03
2023-03-05T07:55:34.521Z,6.30
2023-03-05T07:58:01.998Z,8.80
2023-03-05T08:00:33.762Z,5.10
2023-03-05T08:03:01.518Z,6.03
2023-03-05T08:05:30.298Z,7.07
2023-03-05T08:08:00.232Z,9.23
2023-03-05T08:10:32.775Z,7.18
2023-03-05T08:13:02.699Z,5.13
2023-03-05T08:15:34.433Z,7.40
2023-03-05T08:18:09.543Z,6.00
2023-03-05T08:20:37.108Z,5.47
2023-03-05T08:23:04.728Z,4.55
2023-03-05T08:28:03.317Z,7.28
2023-03-05T08:30:30.892Z,4.95
2023-03-05T08:32:58.477Z,5.88
2023-03-05T08:35:28.925Z,5.40
2023-03-05T08:37:59.167Z,5.95
2023-03-05T08:40:26.958Z,6.50
2023-03-05T08:45:26.086Z,5.88
2023-03-05T08:47:53.536Z,5.25
2023-03-05T08:50:24.094Z,5.10
2023-03-05T08:55:21.826Z,6.78
2023-03-05T09:00:22.724Z,6.10
2023-03-05T09:03:09.861Z,5.60
2023-03-05T09:05:40.710Z,5.63
2023-03-05T09:08:15.064Z,5.30
2023-03-05T09:10:45.221Z,5.53
2023-03-05T09:13:17.781Z,5.75
2023-03-05T09:15:45.345Z,4.68
2023-03-05T09:18:29.000Z,5.82
2023-03-05T09:21:06.268Z,4.47
2023-03-05T09:23:36.458Z,6.00
2023-03-05T09:26:06.301Z,4.18
2023-03-05T09:28:34.423Z,4.30
2023-03-05T09:31:01.919Z,4.43
2023-03-05T09:33:36.937Z,5.28
2023-03-05T09:36:04.412Z,4.65
2023-03-05T09:38:36.783Z,4.80
2023-03-05T09:41:08.792Z,7.10
2023-03-05T09:43:45.136Z,4.45
2023-03-05T09:46:17.641Z,5.85
2023-03-05T09:49:06.054Z,4.95
2023-03-05T09:51:35.651Z,4.22
2023-03-05T09:54:14.636Z,4.00
2023-03-05T09:56:50.835Z,3.92
2023-03-05T09:59:23.053Z,3.90
2023-03-05T10:01:55.039Z,5.10
2023-03-05T10:04:26.470Z,5.05
2023-03-05T10:06:57.886Z,4.30
2023-03-05T10:09:26.581Z,4.97
2023-03-05T10:12:03.407Z,4.75
2023-03-05T10:14:31.109Z,4.38
2023-03-05T10:17:01.735Z,4.47
2023-03-05T10:19:29.269Z,3.88
2023-03-05T10:22:06.332Z,4.80
2023-03-05T10:24:36.370Z,4.38
2023-03-05T10:27:03.987Z,3.60
2023-03-05T10:29:32.422Z,4.10
2023-03-05T10:32:01.890Z,4.80
2023-03-05T10:34:34.907Z,4.53
2023-03-05T10:37:02.471Z,3.85
2023-03-05T10:39:50.631Z,5.15
2023-03-05T10:42:24.951Z,5.03
2023-03-05T10:45:03.554Z,4.22
2023-03-05T10:47:41.763Z,2.92
2023-03-05T10:50:25.953Z,3.70
2023-03-05T10:52:58.940Z,5.20
2023-03-05T10:55:33.568Z,3.05
2023-03-05T10:58:03.044Z,3.92
2023-03-05T11:00:32.476Z,3.50
2023-03-05T11:03:18.642Z,3.85
2023-03-05T11:05:54.264Z,3.25
2023-03-05T11:08:21.703Z,2.60
2023-03-05T11:11:03.759Z,4.53
2023-03-05T11:13:35.039Z,3.70
2023-03-05T11:16:25.211Z,3.53
2023-03-05T11:18:55.432Z,4.40
2023-03-05T11:21:28.807Z,3.88
2023-03-05T11:23:59.107Z,4.65
2023-03-05T11:26:29.066Z,3.53
2023-03-05T11:29:02.296Z,3.72
2023-03-05T11:31:29.845Z,3.25
2023-03-05T11:36:40.052Z,3.40
2023-03-05T11:39:17.492Z,3.03
2023-03-05T11:41:45.089Z,3.70
2023-03-05T11:44:13.653Z,3.33
2023-03-05T11:49:26.583Z,3.38
2023-03-05T11:51:54.214Z,3.55
2023-03-05T11:54:26.751Z,2.20
2023-03-05T11:59:45.761Z,2.80
2023-03-05T12:02:24.860Z,2.47
2023-03-05T12:05:17.485Z,2.58
2023-03-05T12:08:03.507Z,3.08
2023-03-05T12:13:23.018Z,2.85
2023-03-05T12:18:45.114Z,2.13
2023-03-05T12:21:21.470Z,4.10
2023-03-05T12:26:38.022Z,3.05
2023-03-05T12:29:16.431Z,4.10
2023-03-05T12:31:52.332Z,2.30
2023-03-05T12:34:19.975Z,2.30
2023-03-05T12:37:07.837Z,2.20
2023-03-05T12:39:40.406Z,1.35
2023-03-05T12:42:07.932Z,2.20
2023-03-05T12:44:42.614Z,4.70
2023-03-05T12:48:37.459Z,2.70
2023-03-05T12:53:15.752Z,2.90
2023-03-05T13:01:21.943Z,2.42
2023-03-05T13:03:57.610Z,2.85
2023-03-05T13:06:25.263Z,1.75
2023-03-05T13:08:52.884Z,2.72
2023-03-05T13:11:24.692Z,2.08
2023-03-05T13:13:52.260Z,2.08
2023-03-05T13:16:30.201Z,2.40
2023-03-05T13:19:39.179Z,2.20
2023-03-05T13:22:28.775Z,1.95
2023-03-05T13:25:25.589Z,2.10
2023-03-05T13:28:08.817Z,1.17
2023-03-05T13:30:45.574Z,2.05
2023-03-05T13:33:18.504Z,2.80
2023-03-05T13:38:18.997Z,2.13
2023-03-05T13:43:23.371Z,2.28
2023-03-05T13:48:18.337Z,1.52
2023-03-05T13:53:20.192Z,1.75
2023-03-05T13:55:47.770Z,1.70
2023-03-05T13:58:27.983Z,1.20
2023-03-05T14:01:27.352Z,1.55
2023-03-05T14:06:43.740Z,1.65
2023-03-05T14:09:14.268Z,1.38
2023-03-05T14:11:53.697Z,1.83
2023-03-05T14:14:27.214Z,1.38
2023-03-05T14:19:22.019Z,1.48
2023-03-05T14:21:49.688Z,1.75
2023-03-05T14:24:20.766Z,2.28
2023-03-05T14:26:49.547Z,1.77
2023-03-05T14:29:17.951Z,1.75
2023-03-05T14:31:57.515Z,1.73
2023-03-05T14:34:27.972Z,1.52
2023-03-05T14:39:28.165Z,1.77
2023-03-05T14:41:55.885Z,1.58
2023-03-05T14:44:27.221Z,1.25
2023-03-05T14:47:10.811Z,2.47
2023-03-05T14:49:44.830Z,1.30
2023-03-05T14:52:18.545Z,2.00
2023-03-05T14:57:19.837Z,1.48
2023-03-05T14:59:56.048Z,1.60
2023-03-05T15:02:36.447Z,2.05
2023-03-05T15:05:04.187Z,1.23
2023-03-05T15:07:34.340Z,1.15
2023-03-05T15:10:04.055Z,1.35
2023-03-05T15:12:33.682Z,1.25
2023-03-05T15:15:01.203Z,1.98
2023-03-05T15:17:37.742Z,1.40
2023-03-05T15:20:09.182Z,1.88
2023-03-05T15:22:36.720Z,2.50
2023-03-05T15:25:04.232Z,1.92
2023-03-05T15:27:31.579Z,1.80
2023-03-05T15:30:04.961Z,2.78
2023-03-05T15:32:47.178Z,1.23
2023-03-05T15:35:22.322Z,1.30
2023-03-05T15:37:52.301Z,1.38
2023-03-05T15:40:22.203Z,1.48
2023-03-05T15:42:49.722Z,1.20
2023-03-05T15:45:21.675Z,1.52
2023-03-05T15:50:20.242Z,1.25
2023-03-05T15:52:47.735Z,1.77
2023-03-05T15:55:19.101Z,2.50
2023-03-05T16:00:33.223Z,1.13
2023-03-05T16:03:00.735Z,1.40
2023-03-05T16:05:31.165Z,1.52
2023-03-05T16:07:58.661Z,1.30
2023-03-05T16:10:26.264Z,1.63
2023-03-05T16:13:03.248Z,1.10
2023-03-05T16:15:31.850Z,1.20
2023-03-05T16:20:42.272Z,1.70
2023-03-05T16:23:09.802Z,2.22
2023-03-05T16:25:40.102Z,1.30
2023-03-05T16:28:13.325Z,1.10
2023-03-05T16:31:01.225Z,1.30
2023-03-05T16:33:31.148Z,2.00
2023-03-05T16:36:00.897Z,1.80
2023-03-05T16:38:28.307Z,1.50
2023-03-05T16:41:08.400Z,1.48
2023-03-05T16:43:39.197Z,1.40
2023-03-05T16:46:06.727Z,1.27
2023-03-05T16:48:44.412Z,1.50
2023-03-05T16:51:15.571Z,2.05
2023-03-05T16:53:43.273Z,2.03
2023-03-05T16:56:10.976Z,1.58
2023-03-05T16:58:40.847Z,1.10
2023-03-05T17:01:10.712Z,2.72
2023-03-05T17:03:41.754Z,1.60
2023-03-05T17:06:11.581Z,1.80
2023-03-05T17:08:47.770Z,2.00
2023-03-05T17:11:19.594Z,1.42
2023-03-05T17:13:49.343Z,2.08
2023-03-05T17:16:19.246Z,1.05
2023-03-05T17:18:46.805Z,1.80
2023-03-05T17:21:19.223Z,1.83
2023-03-05T17:23:50.330Z,1.38
2023-03-05T17:26:22.012Z,3.22
2023-03-05T17:28:49.477Z,1.60
2023-03-05T17:31:22.409Z,1.60
2023-03-05T17:33:51.086Z,2.97
2023-03-05T17:36:18.494Z,1.33
2023-03-05T17:38:46.555Z,1.80
2023-03-05T17:41:15.277Z,2.17
2023-03-05T17:43:58.276Z,1.85
2023-03-05T17:46:34.889Z,1.40
2023-03-05T17:49:22.131Z,1.80
2023-03-05T17:51:51.446Z,1.30
2023-03-05T17:54:18.864Z,1.00
2023-03-05T17:59:24.811Z,1.88
2023-03-05T18:01:52.325Z,1.50
2023-03-05T18:04:19.818Z,1.17
2023-03-05T18:06:49.754Z,2.13
2023-03-05T18:09:20.044Z,1.80
2023-03-05T18:14:46.333Z,2.60
2023-03-05T18:17:15.514Z,2.25
2023-03-05T18:19:45.560Z,1.35
2023-03-05T18:22:22.818Z,1.70
2023-03-05T18:24:53.373Z,1.75
2023-03-05T18:27:22.440Z,2.22
2023-03-05T18:29:57.013Z,2.00
2023-03-05T18:32:29.193Z,3.00
2023-03-05T18:34:59.732Z,1.67
2023-03-05T18:37:50.694Z,1.48
2023-03-05T18:40:20.595Z,1.70
2023-03-05T18:42:50.759Z,1.85
2023-03-05T18:45:34.718Z,2.58
2023-03-05T18:48:07.238Z,1.95
2023-03-05T18:50:38.196Z,2.45
2023-03-05T18:53:05.670Z,2.65
2023-03-05T18:55:38.300Z,1.40
2023-03-05T18:58:14.376Z,1.73
2023-03-05T19:00:53.451Z,1.83
2023-03-05T19:03:23.923Z,1.85
2023-03-05T19:06:11.750Z,2.00
2023-03-05T19:11:24.639Z,2.10
2023-03-05T19:16:45.608Z,2.28
2023-03-05T19:19:24.380Z,1.63
2023-03-05T19:22:00.905Z,2.25
2023-03-05T19:24:31.314Z,1.70
2023-03-05T19:27:11.425Z,3.78
2023-03-05T19:30:02.867Z,2.47
2023-03-05T19:32:34.105Z,2.35
2023-03-05T19:35:01.821Z,1.90
2023-03-05T19:37:31.579Z,2.17
2023-03-05T19:40:18.719Z,2.65
2023-03-05T19:43:03.398Z,3.40
2023-03-05T19:45:43.543Z,2.83
2023-03-05T19:48:24.568Z,4.43
2023-03-05T19:51:03.309Z,2.85
2023-03-05T19:53:30.928Z,2.88
2023-03-05T19:56:16.129Z,2.95
2023-03-05T19:59:05.228Z,2.35
2023-03-05T20:01:57.036Z,3.00
2023-03-05T20:04:31.525Z,2.60
2023-03-05T20:07:07.356Z,6.82
2023-03-05T20:09:44.462Z,3.83
2023-03-05T20:12:14.966Z,4.45
2023-03-05T20:14:49.714Z,3.45
2023-03-05T20:17:21.456Z,2.50
2023-03-05T20:19:52.973Z,3.40
2023-03-05T20:22:23.221Z,2.75
2023-03-05T20:24:56.064Z,3.10
2023-03-05T20:27:26.532Z,4.60
2023-03-05T20:29:58.441Z,4.72
2023-03-05T20:32:31.239Z,2.95
2023-03-05T20:37:40.196Z,2.38
2023-03-05T20:40:07.908Z,6.00
2023-03-05T20:42:35.335Z,3.33
2023-03-05T20:45:14.384Z,3.22
2023-03-05T20:47:48.094Z,3.92
2023-03-05T20:50:30.723Z,3.92
2023-03-05T20:53:01.447Z,4.82
2023-03-05T20:55:29.419Z,4.22
2023-03-05T20:57:59.864Z,5.43
2023-03-05T21:00:33.816Z,5.15
2023-03-05T21:03:04.311Z,8.07
2023-03-05T21:05:33.099Z,5.75
2023-03-05T21:08:00.680Z,5.72
2023-03-05T21:10:28.118Z,8.90
2023-03-05T21:12:58.992Z,7.20
2023-03-05T21:15:29.585Z,3.70
2023-03-05T21:20:29.420Z,6.13
2023-03-05T21:22:58.080Z,6.50
2023-03-05T21:25:27.738Z,5.47
2023-03-05T21:27:58.367Z,4.18
2023-03-05T21:30:25.944Z,11.82
2023-03-05T21:32:53.551Z,6.82
2023-03-05T21:35:21.236Z,5.45
2023-03-05T21:37:53.549Z,5.90
2023-03-05T21:40:23.591Z,7.88
2023-03-05T21:42:51.305Z,4.90
2023-03-05T21:45:21.015Z,4.75
2023-03-05T21:47:48.581Z,5.43
2023-03-05T21:50:17.414Z,7.50
2023-03-05T21:52:47.652Z,9.18
2023-03-05T21:55:22.916Z,5.22
2023-03-05T21:57:51.918Z,4.78
2023-03-05T22:00:22.814Z,4.28
2023-03-05T22:05:25.266Z,5.38
2023-03-05T22:07:55.584Z,6.10
2023-03-05T22:10:25.795Z,5.10
2023-03-05T22:13:11.470Z,7.45
2023-03-05T22:15:38.875Z,5.75
2023-03-05T22:20:39.260Z,4.07
2023-03-05T22:23:13.934Z,4.40
2023-03-05T22:25:48.667Z,6.20
2023-03-05T22:28:16.310Z,5.78
2023-03-05T22:30:48.263Z,3.63
2023-03-05T22:33:19.203Z,9.57
2023-03-05T22:35:50.840Z,4.53
2023-03-05T22:38:20.874Z,6.70
2023-03-05T22:40:50.798Z,8.50
2023-03-05T22:43:23.650Z,6.07
2023-03-05T22:45:51.251Z,4.22
2023-03-05T22:48:24.260Z,6.68
2023-03-05T22:50:54.039Z,4.00
2023-03-05T22:53:28.905Z,6.22
2023-03-05T22:56:05.766Z,4.75
2023-03-05T22:58:35.900Z,6.50
2023-03-05T23:01:08.614Z,6.93
2023-03-05T23:03:36.096Z,8.35
2023-03-05T23:06:06.252Z,9.10
2023-03-05T23:08:36.094Z,10.38
2023-03-05T23:11:18.998Z,12.57
2023-03-05T23:13:57.032Z,7.22
2023-03-05T23:16:31.535Z,7.47
2023-03-05T23:19:01.730Z,10.10
2023-03-05T23:21:31.959Z,7.50
2023-03-05T23:24:02.692Z,5.10
2023-03-05T23:26:34.977Z,6.80
2023-03-05T23:29:04.555Z,8.57
2023-03-05T23:31:40.568Z,5.20
2023-03-05T23:34:10.222Z,6.32
2023-03-05T23:36:40.260Z,7.55
2023-03-05T23:39:16.347Z,6.35
2023-03-05T23:41:47.986Z,7.22
2023-03-05T23:44:16.727Z,11.73
2023-03-05T23:46:44.352Z,14.52
2023-03-05T23:49:21.093Z,11.93
2023-03-05T23:51:48.647Z,8.60
2023-03-05T23:54:21.854Z,9.35
2023-03-05T23:56:52.369Z,8.75
2023-03-05T23:59:27.490Z,8.90
